Portada
METAR-TAF:

METAR-TAF

Aeroports :

Cienfuegos, Cuba

latitud: 22-09N, longitud: 080-24W, altitud: 39 m

Observació

L'informe es va fer fa 46 minuts, a les 01:59 UTC
Vent 6 kt del Est/Nord-Est
Temperatura 20°C
Humitat 88%
Pressió 1019 hPa

METAR: MUCF 020159Z AUTO 06006KT 20/18 Q1019

Hora: 21:45 (02:45 UTC)

Pronòstic

L'informe es va fer fa 9 hores i 45 minuts, a les 17:00 UTC
Pronòstic vàlid del 01 a les 18 UTC al 01 a les 24 UTC
Vent 12 kt del Nord/Nord-Est
Visibilitat: 9000 m
Cel ennuvolat a una alçada de 2000 ft
Temporalment
l' 01 a les 18 UTC al 01 a les 21 UTC
Núvols disperses a una alçada de 2000 ft, Cumulonimbus.
Cel cobert a una alçada de 7000 ft

TAF: MUCF 011700Z 0118/0124 03012KT 9000 BKN020 TEMPO 0118/0121 SCT020CB OVC070

Observacions i pronòstics meteorològics de més de 4000 aeroports (METAR i TAF).

Les estacions disponibles són els punts grocs i vermells al mapa.

Posi el ratolí al punt desitjat per veure el nom de l'estació.

Feu clic per veure les observacions i els pronòstics meteorològics.

Per canviar el mapa: feu clic els botons verds amb una creu de color negre per apropar; al botó verd amb un guió per allunyar la imatge; o en les fletxes verdes per a mapes adjacents.


METAR-TAF: